ZTL Weather Bulletin
Prepared:5/29/2015 12:13 PM by: RW valid for 9 hours
FOR ATC PLANNING PURPOSES
Expect low VFR/VFR conditions outside convection after patchy MVFR clouds over N ZTL lift by 17-18z. Expect scattered showers and isolated thunderstorms over W and N ZTL with afternoon heating, mostly over the mountains. Cells will move at 5-10kts towards the north to northwest. Surface winds will be mostly southeast to southwest at 3-10kts and occasionally calm. Flight Hazards outside convection: None expected. Altimeters will be above 29.92ins over all ZTL. Ceilings below 050 are expected in ZTL Areas 1/2/3/5/6/7.

Restricted Area Convection: R2102...til 20z. R3002...none. R3004...none.
FTUS80 KATL 291736
KATL 291734Z 2918/3024 13008KT P6SM VCSH BKN040
     FM300200 12005KT P6SM FEW040 SCT120
     FM301100 13005KT P6SM FEW005
     FM301600 14007KT P6SM BKN040
Remark: ISOLATED THUNDERSTORMS POSSIBLE W/NW/N/NE 18-21z.
FTUS42 KGSP 291738
TAFCLT
TAF
KCLT 291738Z 2918/3018 20005KT P6SM SCT035 BKN045
     FM292100 14006KT P6SM SCT060
     FM301000 00000KT P6SM FEW005 SCT010
     FM301500 18005KT P6SM SCT050=

Remark: ISOLATED TS POSSBILE W/NW/N 17-21z.
12-18 Hour Forecast Map
Weather Map
Convective Gate Forecast
Convective Gate Forecast

Weather Briefing
Go to your local forecasts
Radar Mosaic
View radar images
CCFP
Go to the Collaborative Convective Forecast Product (CCFP)
CWAs
View Center Weather Advisories
Aviation Weather Center

ATL products

TDA
TRACON BRF

Convection Gate FCST

Vertical Wind Profile (RAP)

Icing Gate FCST
Atlanta Observations
 

CLT products

TDA

TRACON BRF

Convection Gate FCST

Vertical Wind Profile (RAP)

Icing Gate FCST
Charlotte Observations



USA.gov is the U.S. government's official web portal to all federal, state and local government web resources and services.